sensor_id;sensor_type;location;lat;lon;timestamp;temperature;humidity
14172;DHT22;7165;52.388;4.928;2023-01-08T00:01:04;10.30;99.90
14172;DHT22;7165;52.388;4.928;2023-01-08T00:03:31;10.30;99.90
14172;DHT22;7165;52.388;4.928;2023-01-08T00:06:00;10.30;99.90
14172;DHT22;7165;52.388;4.928;2023-01-08T00:08:27;10.20;99.90
14172;DHT22;7165;52.388;4.928;2023-01-08T00:10:54;10.20;99.90
14172;DHT22;7165;52.388;4.928;2023-01-08T00:13:23;10.20;99.90
14172;DHT22;7165;52.388;4.928;2023-01-08T00:15:53;10.20;99.90
14172;DHT22;7165;52.388;4.928;2023-01-08T00:18:20;10.20;99.90
14172;DHT22;7165;52.388;4.928;2023-01-08T00:20:55;10.20;99.90
14172;DHT22;7165;52.388;4.928;2023-01-08T00:23:22;10.20;99.90
14172;DHT22;7165;52.388;4.928;2023-01-08T00:25:49;10.20;99.90
14172;DHT22;7165;52.388;4.928;2023-01-08T00:28:15;10.10;99.90
14172;DHT22;7165;52.388;4.928;2023-01-08T00:30:44;10.10;99.90
14172;DHT22;7165;52.388;4.928;2023-01-08T00:33:10;10.10;99.90
14172;DHT22;7165;52.388;4.928;2023-01-08T00:35:38;10.10;99.90
14172;DHT22;7165;52.388;4.928;2023-01-08T00:38:05;10.10;99.90
14172;DHT22;7165;52.388;4.928;2023-01-08T00:40:32;10.00;99.90
14172;DHT22;7165;52.388;4.928;2023-01-08T00:42:59;10.00;99.90
14172;DHT22;7165;52.388;4.928;2023-01-08T00:45:26;10.00;99.90
14172;DHT22;7165;52.388;4.928;2023-01-08T00:47:54;10.00;99.90
14172;DHT22;7165;52.388;4.928;2023-01-08T00:50:20;9.90;99.90
14172;DHT22;7165;52.388;4.928;2023-01-08T00:52:47;9.90;99.90
14172;DHT22;7165;52.388;4.928;2023-01-08T00:55:14;9.90;99.90
14172;DHT22;7165;52.388;4.928;2023-01-08T00:57:41;9.90;99.90
14172;DHT22;7165;52.388;4.928;2023-01-08T01:00:10;9.90;99.90
14172;DHT22;7165;52.388;4.928;2023-01-08T01:02:38;9.80;99.90
14172;DHT22;7165;52.388;4.928;2023-01-08T01:05:06;9.80;99.90
14172;DHT22;7165;52.388;4.928;2023-01-08T01:07:35;9.80;99.90
14172;DHT22;7165;52.388;4.928;2023-01-08T01:10:02;9.80;99.90
14172;DHT22;7165;52.388;4.928;2023-01-08T01:12:29;9.80;99.90
14172;DHT22;7165;52.388;4.928;2023-01-08T01:14:56;9.80;99.90
14172;DHT22;7165;52.388;4.928;2023-01-08T01:17:23;9.80;99.90
14172;DHT22;7165;52.388;4.928;2023-01-08T01:19:49;9.80;99.90
14172;DHT22;7165;52.388;4.928;2023-01-08T01:22:17;9.80;99.90
14172;DHT22;7165;52.388;4.928;2023-01-08T01:24:44;9.80;99.90
14172;DHT22;7165;52.388;4.928;2023-01-08T01:27:11;9.80;99.90
14172;DHT22;7165;52.388;4.928;2023-01-08T01:29:37;9.80;99.90
14172;DHT22;7165;52.388;4.928;2023-01-08T01:32:04;9.80;99.90
14172;DHT22;7165;52.388;4.928;2023-01-08T01:34:31;9.80;99.90
14172;DHT22;7165;52.388;4.928;2023-01-08T01:36:58;9.80;99.90
14172;DHT22;7165;52.388;4.928;2023-01-08T01:39:26;9.80;99.90
14172;DHT22;7165;52.388;4.928;2023-01-08T01:41:53;9.80;99.90
14172;DHT22;7165;52.388;4.928;2023-01-08T01:44:39;9.80;99.90
14172;DHT22;7165;52.388;4.928;2023-01-08T01:47:12;9.80;99.90
14172;DHT22;7165;52.388;4.928;2023-01-08T01:49:42;9.70;99.90
14172;DHT22;7165;52.388;4.928;2023-01-08T01:52:10;9.70;99.90
14172;DHT22;7165;52.388;4.928;2023-01-08T01:54:38;9.60;99.90
14172;DHT22;7165;52.388;4.928;2023-01-08T01:57:06;9.60;99.90
14172;DHT22;7165;52.388;4.928;2023-01-08T01:59:33;9.60;99.90
14172;DHT22;7165;52.388;4.928;2023-01-08T02:01:59;9.50;99.90
14172;DHT22;7165;52.388;4.928;2023-01-08T02:04:26;9.50;99.90
14172;DHT22;7165;52.388;4.928;2023-01-08T02:06:59;9.40;99.90
14172;DHT22;7165;52.388;4.928;2023-01-08T02:09:36;9.40;99.90
14172;DHT22;7165;52.388;4.928;2023-01-08T02:12:10;9.40;99.90
14172;DHT22;7165;52.388;4.928;2023-01-08T02:14:48;9.40;99.90
14172;DHT22;7165;52.388;4.928;2023-01-08T02:17:23;9.40;99.90
14172;DHT22;7165;52.388;4.928;2023-01-08T02:19:54;9.30;99.90
14172;DHT22;7165;52.388;4.928;2023-01-08T02:22:34;9.30;99.90
14172;DHT22;7165;52.388;4.928;2023-01-08T02:25:09;9.30;99.90
14172;DHT22;7165;52.388;4.928;2023-01-08T02:27:40;9.30;99.90
14172;DHT22;7165;52.388;4.928;2023-01-08T02:30:09;9.30;99.90
14172;DHT22;7165;52.388;4.928;2023-01-08T02:32:38;9.30;99.90
14172;DHT22;7165;52.388;4.928;2023-01-08T02:35:06;9.30;99.90
14172;DHT22;7165;52.388;4.928;2023-01-08T02:37:33;9.20;99.90
14172;DHT22;7165;52.388;4.928;2023-01-08T02:40:09;9.20;99.90
14172;DHT22;7165;52.388;4.928;2023-01-08T02:42:45;9.20;99.90
14172;DHT22;7165;52.388;4.928;2023-01-08T02:45:20;9.20;99.90
14172;DHT22;7165;52.388;4.928;2023-01-08T02:47:54;9.20;99.90
14172;DHT22;7165;52.388;4.928;2023-01-08T02:50:27;9.20;99.90
14172;DHT22;7165;52.388;4.928;2023-01-08T02:53:00;9.20;99.90
14172;DHT22;7165;52.388;4.928;2023-01-08T02:55:29;9.20;99.90
14172;DHT22;7165;52.388;4.928;2023-01-08T02:57:59;9.20;99.90
14172;DHT22;7165;52.388;4.928;2023-01-08T03:00:27;9.20;99.90
14172;DHT22;7165;52.388;4.928;2023-01-08T03:03:00;9.20;99.90
14172;DHT22;7165;52.388;4.928;2023-01-08T03:05:30;9.20;99.90
14172;DHT22;7165;52.388;4.928;2023-01-08T03:07:57;9.20;99.90
14172;DHT22;7165;52.388;4.928;2023-01-08T03:10:25;9.20;99.90
14172;DHT22;7165;52.388;4.928;2023-01-08T03:12:56;9.20;99.90
14172;DHT22;7165;52.388;4.928;2023-01-08T03:15:30;9.10;99.90
14172;DHT22;7165;52.388;4.928;2023-01-08T03:18:00;9.10;99.90
14172;DHT22;7165;52.388;4.928;2023-01-08T03:20:31;9.10;99.90
14172;DHT22;7165;52.388;4.928;2023-01-08T03:22:59;9.10;99.90
14172;DHT22;7165;52.388;4.928;2023-01-08T03:25:29;9.10;99.90
14172;DHT22;7165;52.388;4.928;2023-01-08T03:27:58;9.10;99.90
14172;DHT22;7165;52.388;4.928;2023-01-08T03:30:28;9.10;99.90
14172;DHT22;7165;52.388;4.928;2023-01-08T03:32:57;9.10;99.90
14172;DHT22;7165;52.388;4.928;2023-01-08T03:35:26;9.00;99.90
14172;DHT22;7165;52.388;4.928;2023-01-08T03:37:56;9.00;99.90
14172;DHT22;7165;52.388;4.928;2023-01-08T03:40:28;9.10;99.90
14172;DHT22;7165;52.388;4.928;2023-01-08T03:42:55;9.10;99.90
14172;DHT22;7165;52.388;4.928;2023-01-08T03:45:23;9.10;99.90
14172;DHT22;7165;52.388;4.928;2023-01-08T03:47:53;9.10;99.90
14172;DHT22;7165;52.388;4.928;2023-01-08T03:50:22;9.10;99.90
14172;DHT22;7165;52.388;4.928;2023-01-08T03:52:50;9.10;99.90
14172;DHT22;7165;52.388;4.928;2023-01-08T03:55:17;9.10;99.90
14172;DHT22;7165;52.388;4.928;2023-01-08T03:57:44;9.10;99.90
14172;DHT22;7165;52.388;4.928;2023-01-08T04:00:12;9.10;99.90
14172;DHT22;7165;52.388;4.928;2023-01-08T04:02:38;9.10;99.90
14172;DHT22;7165;52.388;4.928;2023-01-08T04:05:08;9.10;99.90
14172;DHT22;7165;52.388;4.928;2023-01-08T04:07:35;9.10;99.90
14172;DHT22;7165;52.388;4.928;2023-01-08T04:10:03;9.10;99.90
14172;DHT22;7165;52.388;4.928;2023-01-08T04:12:30;9.20;99.90
14172;DHT22;7165;52.388;4.928;2023-01-08T04:14:57;9.20;99.90
14172;DHT22;7165;52.388;4.928;2023-01-08T04:17:23;9.10;99.90
14172;DHT22;7165;52.388;4.928;2023-01-08T04:19:50;9.10;99.90
14172;DHT22;7165;52.388;4.928;2023-01-08T04:22:18;9.10;99.90
14172;DHT22;7165;52.388;4.928;2023-01-08T04:24:45;9.10;99.90
14172;DHT22;7165;52.388;4.928;2023-01-08T04:27:11;9.00;99.90
14172;DHT22;7165;52.388;4.928;2023-01-08T04:29:38;9.00;99.90
14172;DHT22;7165;52.388;4.928;2023-01-08T04:32:05;9.00;99.90
14172;DHT22;7165;52.388;4.928;2023-01-08T04:34:32;9.00;99.90
14172;DHT22;7165;52.388;4.928;2023-01-08T04:36:58;8.90;99.90
14172;DHT22;7165;52.388;4.928;2023-01-08T04:39:27;8.80;99.90
14172;DHT22;7165;52.388;4.928;2023-01-08T04:41:54;8.80;99.90
14172;DHT22;7165;52.388;4.928;2023-01-08T04:44:25;8.80;99.90
14172;DHT22;7165;52.388;4.928;2023-01-08T04:46:52;8.80;99.90
14172;DHT22;7165;52.388;4.928;2023-01-08T04:49:18;8.70;99.90
14172;DHT22;7165;52.388;4.928;2023-01-08T04:51:45;8.70;99.90
14172;DHT22;7165;52.388;4.928;2023-01-08T04:54:12;8.70;99.90
14172;DHT22;7165;52.388;4.928;2023-01-08T04:56:40;8.60;99.90
14172;DHT22;7165;52.388;4.928;2023-01-08T04:59:07;8.60;99.90
14172;DHT22;7165;52.388;4.928;2023-01-08T05:01:33;8.60;99.90
14172;DHT22;7165;52.388;4.928;2023-01-08T05:04:02;8.50;99.90
14172;DHT22;7165;52.388;4.928;2023-01-08T05:06:30;8.50;99.90
14172;DHT22;7165;52.388;4.928;2023-01-08T05:08:58;8.40;99.90
14172;DHT22;7165;52.388;4.928;2023-01-08T05:11:25;8.50;99.90
14172;DHT22;7165;52.388;4.928;2023-01-08T05:13:53;8.40;99.90
14172;DHT22;7165;52.388;4.928;2023-01-08T05:16:21;8.40;99.90
14172;DHT22;7165;52.388;4.928;2023-01-08T05:18:48;8.40;99.90
14172;DHT22;7165;52.388;4.928;2023-01-08T05:21:15;8.40;99.90
14172;DHT22;7165;52.388;4.928;2023-01-08T05:23:44;8.40;99.90
14172;DHT22;7165;52.388;4.928;2023-01-08T05:26:11;8.40;99.90
14172;DHT22;7165;52.388;4.928;2023-01-08T05:28:38;8.40;99.90
14172;DHT22;7165;52.388;4.928;2023-01-08T05:31:06;8.50;99.90
14172;DHT22;7165;52.388;4.928;2023-01-08T05:33:33;8.50;99.90
14172;DHT22;7165;52.388;4.928;2023-01-08T05:36:00;8.50;99.90
14172;DHT22;7165;52.388;4.928;2023-01-08T05:38:29;8.50;99.90
14172;DHT22;7165;52.388;4.928;2023-01-08T05:40:56;8.50;99.90
14172;DHT22;7165;52.388;4.928;2023-01-08T05:43:22;8.50;99.90
14172;DHT22;7165;52.388;4.928;2023-01-08T05:45:49;8.50;99.90
14172;DHT22;7165;52.388;4.928;2023-01-08T05:48:17;8.50;99.90
14172;DHT22;7165;52.388;4.928;2023-01-08T05:50:44;8.50;99.90
14172;DHT22;7165;52.388;4.928;2023-01-08T05:53:11;8.50;99.90
14172;DHT22;7165;52.388;4.928;2023-01-08T05:55:37;8.50;99.90
14172;DHT22;7165;52.388;4.928;2023-01-08T05:58:05;8.50;99.90
14172;DHT22;7165;52.388;4.928;2023-01-08T06:00:33;8.50;99.90
14172;DHT22;7165;52.388;4.928;2023-01-08T06:03:00;8.50;99.90
14172;DHT22;7165;52.388;4.928;2023-01-08T06:05:29;8.50;99.90
14172;DHT22;7165;52.388;4.928;2023-01-08T06:07:56;8.50;99.90
14172;DHT22;7165;52.388;4.928;2023-01-08T06:10:23;8.50;99.90
14172;DHT22;7165;52.388;4.928;2023-01-08T06:12:50;8.50;99.90
14172;DHT22;7165;52.388;4.928;2023-01-08T06:15:17;8.40;99.90
14172;DHT22;7165;52.388;4.928;2023-01-08T06:17:44;8.40;99.90
14172;DHT22;7165;52.388;4.928;2023-01-08T06:20:11;8.40;99.90
14172;DHT22;7165;52.388;4.928;2023-01-08T06:22:39;8.30;99.90
14172;DHT22;7165;52.388;4.928;2023-01-08T06:25:06;8.30;99.90
14172;DHT22;7165;52.388;4.928;2023-01-08T06:27:32;8.20;99.90
14172;DHT22;7165;52.388;4.928;2023-01-08T06:29:59;8.20;99.90
14172;DHT22;7165;52.388;4.928;2023-01-08T06:32:26;8.10;99.90
14172;DHT22;7165;52.388;4.928;2023-01-08T06:34:52;8.10;99.90
14172;DHT22;7165;52.388;4.928;2023-01-08T06:37:20;8.10;99.90
14172;DHT22;7165;52.388;4.928;2023-01-08T06:39:48;8.10;99.90
14172;DHT22;7165;52.388;4.928;2023-01-08T06:42:14;8.00;99.90
14172;DHT22;7165;52.388;4.928;2023-01-08T06:44:41;8.00;99.90
14172;DHT22;7165;52.388;4.928;2023-01-08T06:47:08;8.00;99.90
14172;DHT22;7165;52.388;4.928;2023-01-08T06:49:34;8.00;99.90
14172;DHT22;7165;52.388;4.928;2023-01-08T06:52:01;7.90;99.90
14172;DHT22;7165;52.388;4.928;2023-01-08T06:54:30;7.90;99.90
14172;DHT22;7165;52.388;4.928;2023-01-08T06:56:58;7.90;99.90
14172;DHT22;7165;52.388;4.928;2023-01-08T06:59:24;7.90;99.90
14172;DHT22;7165;52.388;4.928;2023-01-08T07:01:51;7.90;99.90
14172;DHT22;7165;52.388;4.928;2023-01-08T07:04:18;7.90;99.90
14172;DHT22;7165;52.388;4.928;2023-01-08T07:06:45;7.80;99.90
14172;DHT22;7165;52.388;4.928;2023-01-08T07:09:13;7.80;99.90
14172;DHT22;7165;52.388;4.928;2023-01-08T07:11:40;7.80;99.90
14172;DHT22;7165;52.388;4.928;2023-01-08T07:14:08;7.80;99.90
14172;DHT22;7165;52.388;4.928;2023-01-08T07:16:35;7.70;99.90
14172;DHT22;7165;52.388;4.928;2023-01-08T07:19:02;7.70;99.90
14172;DHT22;7165;52.388;4.928;2023-01-08T07:21:28;7.70;99.90
14172;DHT22;7165;52.388;4.928;2023-01-08T07:23:55;7.70;99.90
14172;DHT22;7165;52.388;4.928;2023-01-08T07:26:23;7.70;99.90
14172;DHT22;7165;52.388;4.928;2023-01-08T07:28:50;7.70;99.90
14172;DHT22;7165;52.388;4.928;2023-01-08T07:31:18;7.60;99.90
14172;DHT22;7165;52.388;4.928;2023-01-08T07:33:45;7.60;99.90
14172;DHT22;7165;52.388;4.928;2023-01-08T07:36:11;7.60;99.90
14172;DHT22;7165;52.388;4.928;2023-01-08T07:38:38;7.60;99.90
14172;DHT22;7165;52.388;4.928;2023-01-08T07:41:05;7.50;99.90
14172;DHT22;7165;52.388;4.928;2023-01-08T07:43:31;7.50;99.90
14172;DHT22;7165;52.388;4.928;2023-01-08T07:46:01;7.60;99.90
14172;DHT22;7165;52.388;4.928;2023-01-08T07:48:29;7.50;99.90
14172;DHT22;7165;52.388;4.928;2023-01-08T07:51:00;7.50;99.90
14172;DHT22;7165;52.388;4.928;2023-01-08T07:53:26;7.40;99.90
14172;DHT22;7165;52.388;4.928;2023-01-08T07:55:58;7.40;99.90
14172;DHT22;7165;52.388;4.928;2023-01-08T07:58:24;7.40;99.90
14172;DHT22;7165;52.388;4.928;2023-01-08T08:00:51;7.40;99.90
14172;DHT22;7165;52.388;4.928;2023-01-08T08:03:18;7.30;99.90
14172;DHT22;7165;52.388;4.928;2023-01-08T08:05:46;7.30;99.90
14172;DHT22;7165;52.388;4.928;2023-01-08T08:08:13;7.30;99.90
14172;DHT22;7165;52.388;4.928;2023-01-08T08:10:41;7.30;99.90
14172;DHT22;7165;52.388;4.928;2023-01-08T08:13:08;7.30;99.90
14172;DHT22;7165;52.388;4.928;2023-01-08T08:15:35;7.30;99.90
14172;DHT22;7165;52.388;4.928;2023-01-08T08:18:03;7.20;99.90
14172;DHT22;7165;52.388;4.928;2023-01-08T08:20:29;7.20;99.90
14172;DHT22;7165;52.388;4.928;2023-01-08T08:23:01;7.30;99.90
14172;DHT22;7165;52.388;4.928;2023-01-08T08:25:28;7.20;99.90
14172;DHT22;7165;52.388;4.928;2023-01-08T08:27:55;7.30;99.90
14172;DHT22;7165;52.388;4.928;2023-01-08T08:30:22;7.30;99.90
14172;DHT22;7165;52.388;4.928;2023-01-08T08:32:49;7.30;99.90
14172;DHT22;7165;52.388;4.928;2023-01-08T08:35:16;7.30;99.90
14172;DHT22;7165;52.388;4.928;2023-01-08T08:37:43;7.30;99.90
14172;DHT22;7165;52.388;4.928;2023-01-08T08:40:11;7.30;99.90
14172;DHT22;7165;52.388;4.928;2023-01-08T08:42:38;7.30;99.90
14172;DHT22;7165;52.388;4.928;2023-01-08T08:45:06;7.30;99.90
14172;DHT22;7165;52.388;4.928;2023-01-08T08:47:32;7.40;99.90
14172;DHT22;7165;52.388;4.928;2023-01-08T08:49:59;7.40;99.90
14172;DHT22;7165;52.388;4.928;2023-01-08T08:52:26;7.40;99.90
14172;DHT22;7165;52.388;4.928;2023-01-08T08:54:53;7.40;99.90
14172;DHT22;7165;52.388;4.928;2023-01-08T08:57:22;7.40;99.90
14172;DHT22;7165;52.388;4.928;2023-01-08T08:59:49;7.50;99.90
14172;DHT22;7165;52.388;4.928;2023-01-08T09:02:15;7.50;99.90
14172;DHT22;7165;52.388;4.928;2023-01-08T09:04:42;7.50;99.90
14172;DHT22;7165;52.388;4.928;2023-01-08T09:07:09;7.50;99.90
14172;DHT22;7165;52.388;4.928;2023-01-08T09:09:35;7.50;99.90
14172;DHT22;7165;52.388;4.928;2023-01-08T09:12:02;7.50;99.90
14172;DHT22;7165;52.388;4.928;2023-01-08T09:14:32;7.50;99.90
14172;DHT22;7165;52.388;4.928;2023-01-08T09:16:59;7.60;99.90
14172;DHT22;7165;52.388;4.928;2023-01-08T09:19:26;7.60;99.90
14172;DHT22;7165;52.388;4.928;2023-01-08T09:21:52;7.60;99.90
14172;DHT22;7165;52.388;4.928;2023-01-08T09:24:19;7.60;99.90
14172;DHT22;7165;52.388;4.928;2023-01-08T09:26:46;7.70;99.90
14172;DHT22;7165;52.388;4.928;2023-01-08T09:29:12;7.70;99.90
14172;DHT22;7165;52.388;4.928;2023-01-08T09:31:40;7.70;99.90
14172;DHT22;7165;52.388;4.928;2023-01-08T09:34:07;7.80;99.90
14172;DHT22;7165;52.388;4.928;2023-01-08T09:36:34;7.80;99.90
14172;DHT22;7165;52.388;4.928;2023-01-08T09:39:00;7.80;99.90
14172;DHT22;7165;52.388;4.928;2023-01-08T09:41:29;7.80;99.90
14172;DHT22;7165;52.388;4.928;2023-01-08T09:43:57;7.90;99.90
14172;DHT22;7165;52.388;4.928;2023-01-08T09:46:27;7.90;99.90
14172;DHT22;7165;52.388;4.928;2023-01-08T09:48:58;8.00;99.90
14172;DHT22;7165;52.388;4.928;2023-01-08T09:51:30;8.00;99.90
14172;DHT22;7165;52.388;4.928;2023-01-08T09:53:58;8.00;99.90
14172;DHT22;7165;52.388;4.928;2023-01-08T09:56:25;8.10;99.90
14172;DHT22;7165;52.388;4.928;2023-01-08T09:58:54;8.10;99.90
14172;DHT22;7165;52.388;4.928;2023-01-08T10:01:23;8.10;99.90
14172;DHT22;7165;52.388;4.928;2023-01-08T10:03:57;8.10;99.90
14172;DHT22;7165;52.388;4.928;2023-01-08T10:06:25;8.20;99.90
14172;DHT22;7165;52.388;4.928;2023-01-08T10:08:51;8.20;99.90
14172;DHT22;7165;52.388;4.928;2023-01-08T10:11:19;8.30;99.90
14172;DHT22;7165;52.388;4.928;2023-01-08T10:13:49;8.30;99.90
14172;DHT22;7165;52.388;4.928;2023-01-08T10:16:23;8.40;99.90
14172;DHT22;7165;52.388;4.928;2023-01-08T10:18:51;8.40;99.90
14172;DHT22;7165;52.388;4.928;2023-01-08T10:21:19;8.50;99.90
14172;DHT22;7165;52.388;4.928;2023-01-08T10:23:48;8.50;99.90
14172;DHT22;7165;52.388;4.928;2023-01-08T10:26:26;8.50;99.90
14172;DHT22;7165;52.388;4.928;2023-01-08T10:29:05;8.60;99.90
14172;DHT22;7165;52.388;4.928;2023-01-08T10:31:32;8.60;99.90
14172;DHT22;7165;52.388;4.928;2023-01-08T10:34:07;8.70;99.90
14172;DHT22;7165;52.388;4.928;2023-01-08T10:36:39;8.70;99.90
14172;DHT22;7165;52.388;4.928;2023-01-08T10:39:06;8.80;99.90
14172;DHT22;7165;52.388;4.928;2023-01-08T10:41:43;8.80;99.90
14172;DHT22;7165;52.388;4.928;2023-01-08T10:44:23;8.80;99.90
14172;DHT22;7165;52.388;4.928;2023-01-08T10:46:53;8.90;99.90
14172;DHT22;7165;52.388;4.928;2023-01-08T10:49:27;8.90;99.90
14172;DHT22;7165;52.388;4.928;2023-01-08T10:51:57;8.90;99.90
14172;DHT22;7165;52.388;4.928;2023-01-08T10:54:31;9.00;99.90
14172;DHT22;7165;52.388;4.928;2023-01-08T10:56:59;9.00;99.90
14172;DHT22;7165;52.388;4.928;2023-01-08T10:59:25;9.00;99.90
14172;DHT22;7165;52.388;4.928;2023-01-08T11:01:54;9.00;99.90
14172;DHT22;7165;52.388;4.928;2023-01-08T11:04:26;9.00;99.90
14172;DHT22;7165;52.388;4.928;2023-01-08T11:06:53;9.00;99.90
14172;DHT22;7165;52.388;4.928;2023-01-08T11:09:28;9.00;99.90
14172;DHT22;7165;52.388;4.928;2023-01-08T11:11:56;9.10;99.90
14172;DHT22;7165;52.388;4.928;2023-01-08T11:14:25;9.10;99.90
14172;DHT22;7165;52.388;4.928;2023-01-08T11:16:52;9.20;99.90
14172;DHT22;7165;52.388;4.928;2023-01-08T11:19:22;9.20;99.90
14172;DHT22;7165;52.388;4.928;2023-01-08T11:21:57;9.30;99.90
14172;DHT22;7165;52.388;4.928;2023-01-08T11:24:28;9.40;99.90
14172;DHT22;7165;52.388;4.928;2023-01-08T11:27:00;9.40;99.90
14172;DHT22;7165;52.388;4.928;2023-01-08T11:29:33;9.40;99.90
14172;DHT22;7165;52.388;4.928;2023-01-08T11:32:16;9.50;99.90
14172;DHT22;7165;52.388;4.928;2023-01-08T11:34:50;9.40;99.90
14172;DHT22;7165;52.388;4.928;2023-01-08T11:37:20;9.40;99.90
14172;DHT22;7165;52.388;4.928;2023-01-08T11:39:50;9.50;99.90
14172;DHT22;7165;52.388;4.928;2023-01-08T11:42:33;9.50;99.90
14172;DHT22;7165;52.388;4.928;2023-01-08T11:45:13;9.40;99.90
14172;DHT22;7165;52.388;4.928;2023-01-08T11:47:55;9.40;99.90
14172;DHT22;7165;52.388;4.928;2023-01-08T11:50:28;9.40;99.90
14172;DHT22;7165;52.388;4.928;2023-01-08T11:53:04;9.50;99.90
14172;DHT22;7165;52.388;4.928;2023-01-08T11:55:42;9.60;99.90
14172;DHT22;7165;52.388;4.928;2023-01-08T11:58:21;9.70;99.90
14172;DHT22;7165;52.388;4.928;2023-01-08T12:01:18;9.80;99.90
14172;DHT22;7165;52.388;4.928;2023-01-08T12:03:59;9.90;99.90
14172;DHT22;7165;52.388;4.928;2023-01-08T12:06:34;10.00;99.90
14172;DHT22;7165;52.388;4.928;2023-01-08T12:09:12;10.00;99.90
14172;DHT22;7165;52.388;4.928;2023-01-08T12:11:49;9.90;99.90
14172;DHT22;7165;52.388;4.928;2023-01-08T12:14:37;9.90;99.90
14172;DHT22;7165;52.388;4.928;2023-01-08T12:17:18;10.00;99.90
14172;DHT22;7165;52.388;4.928;2023-01-08T12:20:14;10.00;99.90
14172;DHT22;7165;52.388;4.928;2023-01-08T12:22:53;10.10;99.90
14172;DHT22;7165;52.388;4.928;2023-01-08T12:25:40;10.10;99.90
14172;DHT22;7165;52.388;4.928;2023-01-08T12:28:20;10.10;99.90
14172;DHT22;7165;52.388;4.928;2023-01-08T12:31:14;10.20;99.90
14172;DHT22;7165;52.388;4.928;2023-01-08T12:33:48;10.20;99.90
14172;DHT22;7165;52.388;4.928;2023-01-08T12:36:22;10.20;99.90
14172;DHT22;7165;52.388;4.928;2023-01-08T12:38:53;10.20;99.90
14172;DHT22;7165;52.388;4.928;2023-01-08T12:41:21;10.20;99.90
14172;DHT22;7165;52.388;4.928;2023-01-08T12:43:54;10.20;99.90
14172;DHT22;7165;52.388;4.928;2023-01-08T12:46:24;10.30;99.90
14172;DHT22;7165;52.388;4.928;2023-01-08T12:48:53;10.30;99.90
14172;DHT22;7165;52.388;4.928;2023-01-08T12:51:27;10.40;99.90
14172;DHT22;7165;52.388;4.928;2023-01-08T12:54:00;10.40;99.90
14172;DHT22;7165;52.388;4.928;2023-01-08T12:56:36;10.40;99.90
14172;DHT22;7165;52.388;4.928;2023-01-08T12:59:17;10.40;99.90
14172;DHT22;7165;52.388;4.928;2023-01-08T13:01:51;10.40;99.90
14172;DHT22;7165;52.388;4.928;2023-01-08T13:04:20;10.40;99.90
14172;DHT22;7165;52.388;4.928;2023-01-08T13:06:52;10.40;99.90
14172;DHT22;7165;52.388;4.928;2023-01-08T13:09:23;10.40;99.90
14172;DHT22;7165;52.388;4.928;2023-01-08T13:11:52;10.40;99.90
14172;DHT22;7165;52.388;4.928;2023-01-08T13:14:21;10.50;99.90
14172;DHT22;7165;52.388;4.928;2023-01-08T13:17:01;10.50;99.90
14172;DHT22;7165;52.388;4.928;2023-01-08T13:19:32;10.60;99.90
14172;DHT22;7165;52.388;4.928;2023-01-08T13:22:00;10.60;99.90
14172;DHT22;7165;52.388;4.928;2023-01-08T13:24:32;10.60;99.90
14172;DHT22;7165;52.388;4.928;2023-01-08T13:27:21;10.60;99.90
14172;DHT22;7165;52.388;4.928;2023-01-08T13:29:53;10.50;99.90
14172;DHT22;7165;52.388;4.928;2023-01-08T13:32:37;10.50;99.90
14172;DHT22;7165;52.388;4.928;2023-01-08T13:35:23;10.60;99.90
14172;DHT22;7165;52.388;4.928;2023-01-08T13:37:51;10.60;99.90
14172;DHT22;7165;52.388;4.928;2023-01-08T13:40:36;10.60;99.90
14172;DHT22;7165;52.388;4.928;2023-01-08T13:43:05;10.60;99.90
14172;DHT22;7165;52.388;4.928;2023-01-08T13:45:33;10.60;99.90
14172;DHT22;7165;52.388;4.928;2023-01-08T13:48:01;10.60;99.90
14172;DHT22;7165;52.388;4.928;2023-01-08T13:50:28;10.50;99.90
14172;DHT22;7165;52.388;4.928;2023-01-08T13:52:57;10.50;99.90
14172;DHT22;7165;52.388;4.928;2023-01-08T13:55:28;10.60;99.90
14172;DHT22;7165;52.388;4.928;2023-01-08T13:57:58;10.60;99.90
14172;DHT22;7165;52.388;4.928;2023-01-08T14:00:29;10.60;99.90
14172;DHT22;7165;52.388;4.928;2023-01-08T14:02:58;10.60;99.90
14172;DHT22;7165;52.388;4.928;2023-01-08T14:05:27;10.60;99.90
14172;DHT22;7165;52.388;4.928;2023-01-08T14:07:54;10.70;99.90
14172;DHT22;7165;52.388;4.928;2023-01-08T14:10:22;10.70;99.90
14172;DHT22;7165;52.388;4.928;2023-01-08T14:12:50;10.70;99.90
14172;DHT22;7165;52.388;4.928;2023-01-08T14:15:22;10.70;99.90
14172;DHT22;7165;52.388;4.928;2023-01-08T14:17:51;10.70;99.90
14172;DHT22;7165;52.388;4.928;2023-01-08T14:20:34;10.70;99.90
14172;DHT22;7165;52.388;4.928;2023-01-08T14:23:02;10.70;99.90
14172;DHT22;7165;52.388;4.928;2023-01-08T14:25:34;10.60;99.90
14172;DHT22;7165;52.388;4.928;2023-01-08T14:28:02;10.60;99.90
14172;DHT22;7165;52.388;4.928;2023-01-08T14:30:29;10.50;99.90
14172;DHT22;7165;52.388;4.928;2023-01-08T14:32:56;10.50;99.90
14172;DHT22;7165;52.388;4.928;2023-01-08T14:35:29;10.30;99.90
14172;DHT22;7165;52.388;4.928;2023-01-08T14:37:59;10.20;99.90
14172;DHT22;7165;52.388;4.928;2023-01-08T14:40:32;10.10;99.90
14172;DHT22;7165;52.388;4.928;2023-01-08T14:43:05;10.10;99.90
14172;DHT22;7165;52.388;4.928;2023-01-08T14:45:33;10.00;99.90
14172;DHT22;7165;52.388;4.928;2023-01-08T14:48:07;10.00;99.90
14172;DHT22;7165;52.388;4.928;2023-01-08T14:50:35;10.00;99.90
14172;DHT22;7165;52.388;4.928;2023-01-08T14:53:06;10.00;99.90
14172;DHT22;7165;52.388;4.928;2023-01-08T14:55:35;10.00;99.90
14172;DHT22;7165;52.388;4.928;2023-01-08T14:58:02;10.00;99.90
14172;DHT22;7165;52.388;4.928;2023-01-08T15:00:30;10.00;99.90
14172;DHT22;7165;52.388;4.928;2023-01-08T15:02:57;9.90;99.90
14172;DHT22;7165;52.388;4.928;2023-01-08T15:05:26;9.90;99.90
14172;DHT22;7165;52.388;4.928;2023-01-08T15:07:59;9.80;99.90
14172;DHT22;7165;52.388;4.928;2023-01-08T15:10:39;9.80;99.90
14172;DHT22;7165;52.388;4.928;2023-01-08T15:13:22;9.80;99.90
14172;DHT22;7165;52.388;4.928;2023-01-08T15:15:54;9.70;99.90
14172;DHT22;7165;52.388;4.928;2023-01-08T15:18:22;9.80;99.90
14172;DHT22;7165;52.388;4.928;2023-01-08T15:20:49;9.70;99.90
14172;DHT22;7165;52.388;4.928;2023-01-08T15:23:24;9.70;99.90
14172;DHT22;7165;52.388;4.928;2023-01-08T15:25:54;9.70;99.90
14172;DHT22;7165;52.388;4.928;2023-01-08T15:28:21;9.70;99.90
14172;DHT22;7165;52.388;4.928;2023-01-08T15:30:49;9.70;99.90
14172;DHT22;7165;52.388;4.928;2023-01-08T15:33:19;9.70;99.90
14172;DHT22;7165;52.388;4.928;2023-01-08T15:35:46;9.70;99.90
14172;DHT22;7165;52.388;4.928;2023-01-08T15:38:13;9.70;99.90
14172;DHT22;7165;52.388;4.928;2023-01-08T15:40:40;9.60;99.90
14172;DHT22;7165;52.388;4.928;2023-01-08T15:43:11;9.60;99.90
14172;DHT22;7165;52.388;4.928;2023-01-08T15:45:39;9.50;99.90
14172;DHT22;7165;52.388;4.928;2023-01-08T15:48:07;9.50;99.90
14172;DHT22;7165;52.388;4.928;2023-01-08T15:50:35;9.40;99.90
14172;DHT22;7165;52.388;4.928;2023-01-08T15:53:04;9.40;99.90
14172;DHT22;7165;52.388;4.928;2023-01-08T15:55:32;9.30;99.90
14172;DHT22;7165;52.388;4.928;2023-01-08T15:57:59;9.30;99.90
14172;DHT22;7165;52.388;4.928;2023-01-08T16:00:31;9.20;99.90
14172;DHT22;7165;52.388;4.928;2023-01-08T16:02:58;9.20;99.90
14172;DHT22;7165;52.388;4.928;2023-01-08T16:05:28;9.20;99.90
14172;DHT22;7165;52.388;4.928;2023-01-08T16:07:55;9.20;99.90
14172;DHT22;7165;52.388;4.928;2023-01-08T16:10:21;9.10;99.90
14172;DHT22;7165;52.388;4.928;2023-01-08T16:12:49;9.10;99.90